Time;durP1;ratioP1;P1;durP2;ratioP2;P2;SDS_P1;SDS_P2;PMS_P1;PMS_P2;Temp;Humidity;BMP_temperature;BMP_pressure;BME280_temperature;BME280_humidity;BME280_pressure;Samples;Min_cycle;Max_cycle;Signal;HPM_P1;HPM_P2
2021/12/20 00:02:22;;;;;;;;;30.25;24.00;;;;;7.15;68.13;102287.47;5078754;28;45771;-69
2021/12/20 00:04:51;;;;;;;;;24.25;22.25;;;;;7.11;68.48;102279.47;5078089;28;45602;-68
2021/12/20 00:07:18;;;;;;;;;28.50;21.75;;;;;7.15;68.89;102305.72;5075621;28;45546;-68
2021/12/20 00:09:44;;;;;;;;;28.50;22.50;;;;;6.98;68.79;102283.28;5075918;27;45600;-68
2021/12/20 00:12:13;;;;;;;;;25.75;22.50;;;;;7.14;68.71;102310.84;5075019;27;48059;-68
2021/12/20 00:14:39;;;;;;;;;26.25;22.00;;;;;7.11;68.87;102306.41;5076964;28;45426;-69
2021/12/20 00:17:05;;;;;;;;;30.75;25.00;;;;;7.10;69.39;102309.84;5077275;27;45423;-70
2021/12/20 00:19:33;;;;;;;;;26.50;25.75;;;;;7.07;68.99;102304.53;5077289;28;45481;-70
2021/12/20 00:21:59;;;;;;;;;26.75;24.00;;;;;7.08;69.57;102302.78;5077929;28;46193;-68
2021/12/20 00:24:25;;;;;;;;;30.00;25.25;;;;;7.07;69.64;102303.59;5076724;28;45383;-68
2021/12/20 00:26:53;;;;;;;;;23.25;19.25;;;;;7.03;69.68;102296.50;5075902;28;45538;-68
2021/12/20 00:29:19;;;;;;;;;25.50;21.50;;;;;7.01;70.12;102304.25;5079536;28;45313;-70
2021/12/20 00:31:45;;;;;;;;;32.25;22.25;;;;;7.07;70.02;102308.81;5076599;28;45526;-68
2021/12/20 00:34:10;;;;;;;;;25.00;21.00;;;;;7.01;69.98;102276.47;5075609;28;45491;-68
2021/12/20 00:36:36;;;;;;;;;28.00;25.50;;;;;7.15;70.01;102292.69;5077819;28;45372;-70
2021/12/20 00:41:46;;;;;;;;;25.00;24.25;;;;;7.23;69.57;102293.88;5079632;28;45862;-69
2021/12/20 00:44:12;;;;;;;;;24.50;22.00;;;;;7.08;69.74;102272.41;5080166;28;45377;-69
2021/12/20 00:46:38;;;;;;;;;22.50;20.25;;;;;7.31;69.60;102298.50;5078909;28;45460;-69
2021/12/20 00:49:03;;;;;;;;;26.50;22.25;;;;;7.37;69.27;102290.94;5075758;28;45438;-69
2021/12/20 00:51:29;;;;;;;;;22.50;18.00;;;;;7.42;69.00;102295.50;5074965;27;46333;-68
2021/12/20 00:53:54;;;;;;;;;26.75;23.25;;;;;7.47;68.33;102292.19;5075659;27;45898;-68
2021/12/20 00:56:20;;;;;;;;;27.25;22.25;;;;;7.47;68.28;102281.75;5075637;27;45465;-68
2021/12/20 00:58:46;;;;;;;;;17.25;15.00;;;;;7.50;68.47;102284.47;5076434;27;45373;-68
2021/12/20 01:01:11;;;;;;;;;23.50;19.50;;;;;7.39;68.08;102265.81;5079356;27;46072;-68
2021/12/20 01:03:37;;;;;;;;;25.50;22.00;;;;;7.49;68.08;102274.91;5093696;27;45250;-68
2021/12/20 01:06:04;;;;;;;;;21.25;17.25;;;;;7.62;68.31;102285.00;5100533;27;45471;-67
2021/12/20 01:08:34;;;;;;;;;21.50;21.00;;;;;7.62;67.88;102264.13;5096967;27;45468;-69
2021/12/20 01:11:01;;;;;;;;;28.75;20.50;;;;;7.64;68.09;102268.56;5095772;27;45351;-69
2021/12/20 01:13:29;;;;;;;;;25.00;23.00;;;;;7.58;68.01;102257.00;5098248;27;45518;-68
2021/12/20 01:15:58;;;;;;;;;30.75;25.00;;;;;7.57;68.14;102261.34;5098260;27;45392;-68
2021/12/20 01:18:24;;;;;;;;;23.75;19.50;;;;;7.65;68.29;102272.06;5095987;27;45629;-67
2021/12/20 01:20:50;;;;;;;;;25.00;22.50;;;;;7.73;67.58;102269.72;5095232;27;45852;-69
2021/12/20 01:23:17;;;;;;;;;28.00;24.00;;;;;7.75;67.44;102265.47;5099061;27;45322;-68
2021/12/20 01:25:44;;;;;;;;;22.00;19.75;;;;;7.54;67.53;102261.19;5099530;27;45205;-69
2021/12/20 01:28:11;;;;;;;;;25.00;20.25;;;;;7.44;68.12;102264.28;5096598;27;45394;-68
2021/12/20 01:30:38;;;;;;;;;24.75;22.50;;;;;7.40;68.03;102255.47;5095251;27;46638;-68
2021/12/20 01:33:08;;;;;;;;;27.50;24.00;;;;;7.37;67.56;102265.75;5098154;27;45404;-69
2021/12/20 01:35:33;;;;;;;;;20.25;19.00;;;;;7.37;68.39;102262.28;5099832;27;45347;-67
2021/12/20 01:37:59;;;;;;;;;25.50;23.50;;;;;7.19;68.44;102249.41;5094568;27;45298;-69
2021/12/20 01:40:25;;;;;;;;;27.50;23.25;;;;;7.24;68.35;102255.69;5077869;28;46580;-69
2021/12/20 01:42:56;;;;;;;;;32.25;23.25;;;;;7.27;68.84;102257.53;5059185;27;45665;-69
2021/12/20 01:45:24;;;;;;;;;25.75;24.25;;;;;7.34;68.66;102265.66;5068636;27;45701;-69
2021/12/20 01:47:59;;;;;;;;;30.50;25.25;;;;;7.21;68.95;102238.22;5094812;27;45369;-68
2021/12/20 01:50:41;;;;;;;;;32.50;26.75;;;;;7.28;68.66;102256.69;5063035;27;46303;-68
2021/12/20 01:53:08;;;;;;;;;27.00;22.00;;;;;7.25;68.98;102246.16;5084432;27;45375;-68
2021/12/20 01:55:34;;;;;;;;;28.50;26.00;;;;;7.36;68.17;102263.13;5101698;27;45471;-69
2021/12/20 01:58:00;;;;;;;;;36.25;28.50;;;;;7.30;68.07;102258.53;5080543;27;45706;-69
2021/12/20 02:00:28;;;;;;;;;29.50;26.50;;;;;7.10;68.94;102230.81;5076290;27;45533;-68
2021/12/20 02:02:59;;;;;;;;;31.00;23.50;;;;;7.19;69.10;102258.13;5080497;27;45442;-68
2021/12/20 02:05:46;;;;;;;;;27.00;27.00;;;;;7.16;68.82;102239.72;5081545;27;45554;-69
2021/12/20 02:08:21;;;;;;;;;29.75;24.75;;;;;7.21;68.38;102250.34;5080106;27;45479;-69
2021/12/20 02:10:48;;;;;;;;;29.25;25.75;;;;;7.10;68.52;102246.44;5084233;27;45456;-68
2021/12/20 02:13:15;;;;;;;;;31.50;26.50;;;;;7.06;68.26;102249.72;5088614;27;45378;-69
2021/12/20 02:15:41;;;;;;;;;31.75;28.00;;;;;7.01;68.73;102240.00;5081096;27;45596;-69
2021/12/20 02:18:07;;;;;;;;;35.50;31.75;;;;;7.05;68.42;102245.34;5088490;27;45304;-69
2021/12/20 02:20:33;;;;;;;;;35.25;31.00;;;;;7.04;68.83;102234.03;5079708;27;45920;-68
2021/12/20 02:23:00;;;;;;;;;32.25;30.00;;;;;7.12;68.40;102250.88;5096571;27;45483;-69
2021/12/20 02:25:28;;;;;;;;;29.50;26.00;;;;;6.97;68.48;102208.56;5096323;27;45393;-68
2021/12/20 02:27:55;;;;;;;;;37.25;28.00;;;;;7.19;68.23;102239.88;5094936;27;45543;-67
2021/12/20 02:38:39;;;;;;;;;33.00;29.00;;;;;7.21;68.73;102246.03;5079676;27;45509;-68
2021/12/20 02:41:13;;;;;;;;;38.75;31.50;;;;;7.26;68.32;102241.00;5079451;27;45690;-68
2021/12/20 02:43:42;;;;;;;;;39.75;34.25;;;;;7.29;68.33;102240.25;5097413;27;45527;-68
2021/12/20 02:47:02;;;;;;;;;43.25;35.25;;;;;7.29;68.02;102237.63;5085235;27;45666;-68
2021/12/20 02:49:28;;;;;;;;;39.00;33.00;;;;;7.29;68.25;102229.81;5011130;28;45587;-69
2021/12/20 02:51:59;;;;;;;;;41.25;31.75;;;;;7.27;68.47;102226.25;5025314;28;46058;-68
2021/12/20 02:54:25;;;;;;;;;39.25;33.50;;;;;7.19;68.49;102211.22;5042351;27;45468;-69
2021/12/20 02:56:50;;;;;;;;;38.00;32.75;;;;;7.25;68.03;102213.16;5094366;27;45366;-69
2021/12/20 02:59:18;;;;;;;;;41.25;34.50;;;;;7.38;68.56;102232.75;5079640;27;45453;-68
2021/12/20 03:01:53;;;;;;;;;37.50;33.00;;;;;7.40;68.18;102226.81;5074923;28;46092;-68
2021/12/20 03:04:19;;;;;;;;;35.50;32.25;;;;;7.41;67.92;102212.91;5092649;27;45428;-68
2021/12/20 03:07:02;;;;;;;;;42.75;33.75;;;;;7.46;67.63;102222.66;5082431;27;45413;-69
2021/12/20 03:09:33;;;;;;;;;36.50;31.50;;;;;7.43;68.03;102205.16;5094621;27;46344;-69
2021/12/20 03:12:01;;;;;;;;;39.75;34.00;;;;;7.54;67.63;102216.00;5077241;27;45437;-69
2021/12/20 03:14:32;;;;;;;;;41.50;32.75;;;;;7.60;67.17;102217.13;5070886;27;45408;-68
2021/12/20 03:17:00;;;;;;;;;38.50;32.25;;;;;7.56;67.51;102204.78;5078057;28;45273;-67
2021/12/20 03:19:27;;;;;;;;;46.50;34.75;;;;;7.56;68.01;102204.78;5078922;28;45305;-68
2021/12/20 03:21:53;;;;;;;;;41.50;34.00;;;;;7.59;67.89;102201.41;5058549;28;46124;-69
2021/12/20 03:24:19;;;;;;;;;44.50;35.75;;;;;7.64;67.32;102205.97;5073277;28;45636;-69
2021/12/20 03:26:45;;;;;;;;;42.75;32.25;;;;;7.68;67.47;102206.09;5075624;28;45504;-70
2021/12/20 03:29:11;;;;;;;;;36.00;31.25;;;;;7.72;67.57;102206.25;5070437;28;45679;-69
2021/12/20 03:31:37;;;;;;;;;37.75;31.75;;;;;7.64;67.34;102185.13;5076969;28;46097;-69
2021/12/20 03:34:04;;;;;;;;;33.75;29.25;;;;;7.79;66.67;102210.88;5066630;28;45485;-69
2021/12/20 03:36:30;;;;;;;;;45.00;36.25;;;;;7.81;66.50;102208.34;5076791;28;45590;-68
2021/12/20 03:38:55;;;;;;;;;41.75;32.50;;;;;7.69;66.36;102182.69;5060852;28;45497;-68
2021/12/20 03:41:22;;;;;;;;;32.50;30.50;;;;;7.81;66.41;102195.28;5075918;28;46258;-69
2021/12/20 03:43:48;;;;;;;;;38.50;29.75;;;;;7.78;66.14;102189.94;5063584;27;45469;-69
2021/12/20 03:46:13;;;;;;;;;40.25;33.25;;;;;7.71;66.49;102193.16;5077397;27;45445;-68
2021/12/20 03:48:39;;;;;;;;;38.50;33.75;;;;;7.68;66.50;102187.84;5076991;27;45495;-68
2021/12/20 03:51:05;;;;;;;;;43.75;35.00;;;;;7.67;66.69;102191.28;5076796;27;45581;-69
2021/12/20 03:53:33;;;;;;;;;46.25;35.25;;;;;7.68;66.62;102175.66;5079578;28;45460;-69
2021/12/20 03:55:59;;;;;;;;;40.50;35.50;;;;;7.67;66.74;102178.25;5076270;27;45456;-68
2021/12/20 03:58:29;;;;;;;;;49.50;36.50;;;;;7.69;66.75;102193.13;5078244;27;45386;-68
2021/12/20 04:00:56;;;;;;;;;44.00;36.50;;;;;7.61;66.58;102174.56;5062676;27;47242;-67
2021/12/20 04:03:22;;;;;;;;;42.25;34.00;;;;;7.70;66.97;102194.00;5089749;27;45548;-68
2021/12/20 04:05:48;;;;;;;;;38.00;33.50;;;;;7.65;66.90;102176.44;5076484;27;45546;-68
2021/12/20 04:08:13;;;;;;;;;33.25;29.75;;;;;7.72;66.46;102189.72;5074900;27;45394;-69
2021/12/20 04:10:39;;;;;;;;;42.50;34.25;;;;;7.77;66.67;102188.19;5086227;27;45382;-68
2021/12/20 04:13:04;;;;;;;;;46.00;37.75;;;;;7.78;66.41;102188.25;5090908;27;45617;-69
2021/12/20 04:15:30;;;;;;;;;46.00;37.00;;;;;7.59;66.43;102164.91;5077165;27;45432;-70
2021/12/20 04:17:56;;;;;;;;;46.25;34.00;;;;;7.44;66.60;102144.38;5092144;27;45416;-69
2021/12/20 04:20:21;;;;;;;;;49.00;38.25;;;;;7.61;66.90;102194.53;5075641;28;46507;-68
2021/12/20 04:22:47;;;;;;;;;38.75;33.00;;;;;7.53;66.95;102182.94;5076168;27;45712;-68
2021/12/20 04:25:12;;;;;;;;;47.50;38.50;;;;;7.66;66.33;102200.81;5097368;27;45352;-68
2021/12/20 04:27:38;;;;;;;;;42.75;33.75;;;;;7.56;66.71;102196.97;5098720;27;45351;-67
2021/12/20 04:30:10;;;;;;;;;46.75;36.50;;;;;7.51;66.75;102195.91;5096486;27;46173;-69
2021/12/20 04:32:46;;;;;;;;;47.25;36.50;;;;;7.44;66.94;102207.81;5095967;27;45886;-70
2021/12/20 04:35:15;;;;;;;;;48.50;36.75;;;;;7.45;67.38;102198.31;5077850;27;45768;-69
2021/12/20 04:37:44;;;;;;;;;39.00;33.75;;;;;7.38;67.55;102188.44;5076409;27;45631;-70
2021/12/20 04:40:15;;;;;;;;;37.00;31.50;;;;;7.31;67.49;102165.56;5084505;27;46346;-68
2021/12/20 04:42:41;;;;;;;;;47.00;35.00;;;;;7.52;67.18;102199.41;5087303;27;45421;-68
2021/12/20 04:45:07;;;;;;;;;44.00;36.75;;;;;7.56;67.57;102191.75;5075991;27;45657;-67
2021/12/20 04:47:32;;;;;;;;;42.00;33.00;;;;;7.61;67.46;102194.53;5089751;27;45566;-70
2021/12/20 04:49:59;;;;;;;;;38.25;31.50;;;;;7.64;67.24;102181.63;5080057;28;46272;-68
2021/12/20 04:52:25;;;;;;;;;39.00;31.25;;;;;7.64;67.08;102182.50;5088802;27;45782;-69
2021/12/20 04:54:50;;;;;;;;;42.50;35.00;;;;;7.70;66.50;102183.56;5089765;27;45444;-69
2021/12/20 04:57:17;;;;;;;;;40.50;34.00;;;;;7.62;66.36;102194.59;5082766;27;45717;-68
2021/12/20 04:59:43;;;;;;;;;44.00;34.00;;;;;7.57;66.23;102198.75;5098871;27;45753;-68
2021/12/20 05:02:08;;;;;;;;;47.25;35.75;;;;;7.50;66.36;102199.38;5098709;27;45219;-68
2021/12/20 05:04:34;;;;;;;;;41.25;34.75;;;;;7.37;67.05;102194.50;5081009;27;45523;-67
2021/12/20 05:06:59;;;;;;;;;45.00;34.75;;;;;7.30;67.09;102197.69;5080294;28;45394;-69
2021/12/20 05:09:28;;;;;;;;;45.25;34.00;;;;;6.99;67.70;102167.84;5089376;27;46084;-68
2021/12/20 05:12:01;;;;;;;;;41.25;31.50;;;;;7.06;67.72;102192.41;5074689;28;45496;-68
2021/12/20 05:14:27;;;;;;;;;42.25;33.50;;;;;7.09;68.34;102201.22;5079032;27;45379;-68
2021/12/20 05:16:52;;;;;;;;;42.75;34.00;;;;;7.03;68.34;102190.59;5091659;27;45405;-68
2021/12/20 05:19:18;;;;;;;;;37.00;31.50;;;;;7.02;68.25;102201.81;5070917;27;46181;-68
2021/12/20 05:21:44;;;;;;;;;44.75;35.00;;;;;6.76;68.45;102185.13;5085258;27;45436;-68
2021/12/20 05:24:10;;;;;;;;;37.50;31.75;;;;;6.78;69.30;102199.09;5081726;27;45420;-69
2021/12/20 05:26:35;;;;;;;;;48.00;34.00;;;;;6.76;68.79;102186.03;5075328;27;45440;-68
2021/12/20 05:29:06;;;;;;;;;39.50;30.50;;;;;6.80;69.28;102194.84;5087628;27;46115;-68
2021/12/20 05:31:34;;;;;;;;;29.50;23.25;;;;;6.91;68.88;102210.94;5078685;27;45637;-68
2021/12/20 05:33:59;;;;;;;;;35.50;31.75;;;;;6.87;68.72;102211.63;5092006;27;45570;-68
2021/12/20 05:36:25;;;;;;;;;37.75;31.75;;;;;6.73;68.64;102204.13;5081010;27;45557;-68
2021/12/20 05:38:50;;;;;;;;;37.50;32.00;;;;;6.68;69.05;102200.44;5085274;27;45746;-68
2021/12/20 05:41:16;;;;;;;;;31.00;28.50;;;;;6.55;68.67;102175.63;5079607;27;45981;-68
2021/12/20 05:43:42;;;;;;;;;37.00;28.25;;;;;6.71;68.68;102202.28;5093122;27;45597;-68
2021/12/20 05:46:07;;;;;;;;;37.00;28.50;;;;;6.74;68.51;102198.13;5093775;27;45352;-68
2021/12/20 05:48:33;;;;;;;;;40.50;32.25;;;;;6.77;68.92;102206.03;5086109;27;46085;-68
2021/12/20 05:50:58;;;;;;;;;33.50;28.00;;;;;6.64;68.40;102179.44;5078047;27;45613;-68
2021/12/20 05:53:24;;;;;;;;;29.50;24.25;;;;;6.76;68.52;102195.53;5092269;27;45409;-68
2021/12/20 05:55:49;;;;;;;;;33.50;29.25;;;;;6.89;68.30;102195.22;5079472;27;45408;-69
2021/12/20 05:58:15;;;;;;;;;36.25;27.75;;;;;6.92;68.40;102197.94;5091837;27;45506;-68
2021/12/20 06:00:40;;;;;;;;;36.25;29.25;;;;;7.07;68.20;102207.22;5080079;27;45511;-69
2021/12/20 06:03:06;;;;;;;;;36.00;32.00;;;;;6.90;67.98;102175.28;5090232;27;45452;-69
2021/12/20 06:05:32;;;;;;;;;38.75;32.75;;;;;6.85;67.40;102188.13;5079141;27;45367;-69
2021/12/20 06:07:58;;;;;;;;;33.50;29.50;;;;;6.80;67.69;102211.38;5090934;27;46071;-68
2021/12/20 06:10:23;;;;;;;;;42.00;31.00;;;;;6.82;68.18;102208.84;5080066;27;45519;-68
2021/12/20 06:12:49;;;;;;;;;42.00;31.75;;;;;6.76;68.06;102201.66;5094683;27;45429;-68
2021/12/20 06:15:15;;;;;;;;;37.00;25.00;;;;;6.60;68.77;102194.06;5085598;27;45453;-68
2021/12/20 06:17:41;;;;;;;;;35.50;29.75;;;;;6.54;68.00;102185.97;5074627;27;45963;-68
2021/12/20 06:20:09;;;;;;;;;31.25;27.00;;;;;6.66;68.07;102202.09;5079938;27;45487;-67
2021/12/20 06:22:34;;;;;;;;;30.25;27.00;;;;;6.61;68.75;102194.94;5085297;27;45467;-68
2021/12/20 06:25:01;;;;;;;;;34.50;28.50;;;;;6.71;68.06;102202.28;5087314;27;45341;-68
2021/12/20 06:27:26;;;;;;;;;34.75;26.50;;;;;6.74;67.57;102210.25;5088637;27;45788;-67
2021/12/20 06:29:52;;;;;;;;;25.50;23.25;;;;;6.76;67.63;102203.34;5090637;27;45367;-68
2021/12/20 06:32:17;;;;;;;;;33.75;28.75;;;;;6.75;67.86;102202.47;5073859;28;45785;-68
2021/12/20 06:34:43;;;;;;;;;30.50;22.75;;;;;6.87;68.25;102215.13;5077738;27;45320;-68
2021/12/20 06:37:10;;;;;;;;;31.50;24.25;;;;;6.90;67.38;102198.72;5090157;27;46235;-68
2021/12/20 06:39:36;;;;;;;;;36.50;26.75;;;;;6.90;67.79;102211.75;5083051;27;45654;-69
2021/12/20 06:42:02;;;;;;;;;33.50;22.25;;;;;6.93;66.83;102212.78;5084779;27;45764;-67
2021/12/20 06:44:28;;;;;;;;;29.00;23.25;;;;;6.98;67.32;102211.22;5073668;27;45537;-68
2021/12/20 06:46:53;;;;;;;;;38.75;29.00;;;;;6.97;66.80;102217.25;5083327;27;45573;-68
2021/12/20 06:49:19;;;;;;;;;29.25;26.00;;;;;6.77;67.15;102200.81;5080541;27;45491;-69
2021/12/20 06:51:45;;;;;;;;;34.50;28.00;;;;;6.95;67.42;102225.84;5090757;27;45933;-70
2021/12/20 06:54:13;;;;;;;;;40.25;29.00;;;;;6.94;67.31;102231.88;5080558;27;45349;-69
2021/12/20 06:56:39;;;;;;;;;31.00;26.50;;;;;6.85;66.94;102215.88;5093258;27;45361;-68
2021/12/20 06:59:05;;;;;;;;;35.00;30.25;;;;;6.82;67.25;102229.66;5080443;27;45925;-70
2021/12/20 07:01:30;;;;;;;;;28.00;23.75;;;;;6.79;68.02;102232.16;5094966;27;45451;-67
2021/12/20 07:03:56;;;;;;;;;29.50;24.75;;;;;6.82;67.62;102228.78;5082185;27;45537;-69
2021/12/20 07:06:22;;;;;;;;;36.25;32.75;;;;;6.85;67.43;102219.38;5100410;27;46144;-68
2021/12/20 07:08:48;;;;;;;;;40.25;28.50;;;;;6.87;66.98;102238.56;5100765;27;45639;-71
2021/12/20 07:11:14;;;;;;;;;38.00;32.75;;;;;6.84;67.61;102234.94;5079544;27;45374;-68
2021/12/20 07:13:40;;;;;;;;;32.00;27.00;;;;;6.82;67.44;102240.09;5079797;27;45586;-67
2021/12/20 07:16:06;;;;;;;;;24.75;24.75;;;;;6.61;67.25;102218.38;5094125;27;45910;-71
2021/12/20 07:18:33;;;;;;;;;40.75;29.50;;;;;6.69;68.00;102227.38;5099482;27;45446;-69
2021/12/20 07:20:58;;;;;;;;;39.00;31.00;;;;;6.74;67.45;102233.69;5086439;27;45722;-68
2021/12/20 07:23:24;;;;;;;;;38.75;32.00;;;;;6.70;67.95;102216.16;5090178;27;45489;-68
2021/12/20 07:25:50;;;;;;;;;43.75;31.75;;;;;6.80;67.71;102231.31;5099772;27;45574;-69
2021/12/20 07:28:16;;;;;;;;;41.25;32.50;;;;;6.77;67.24;102231.19;5101983;27;45551;-69
2021/12/20 07:30:45;;;;;;;;;41.50;31.25;;;;;6.71;67.91;102224.00;5082689;27;45516;-68
2021/12/20 07:33:11;;;;;;;;;39.00;33.50;;;;;6.74;67.09;102218.94;5096535;27;45560;-70
2021/12/20 07:35:37;;;;;;;;;41.75;33.50;;;;;6.82;67.07;102234.00;5082287;27;45583;-68
2021/12/20 07:38:03;;;;;;;;;41.25;31.00;;;;;6.82;67.09;102228.78;5077502;27;45418;-67
2021/12/20 07:40:30;;;;;;;;;38.00;33.00;;;;;6.77;67.85;102234.69;5093729;27;45494;-69
2021/12/20 07:42:56;;;;;;;;;28.50;24.00;;;;;6.69;67.87;102225.69;5084144;27;45578;-68
2021/12/20 07:45:21;;;;;;;;;41.50;30.25;;;;;6.82;68.27;102245.28;5080902;27;45488;-67
2021/12/20 07:47:48;;;;;;;;;35.50;28.75;;;;;6.71;67.47;102213.59;5088213;27;45494;-69
2021/12/20 07:50:15;;;;;;;;;41.50;29.75;;;;;6.86;67.19;102228.97;5089003;27;45367;-69
2021/12/20 07:52:41;;;;;;;;;38.50;32.25;;;;;6.90;67.09;102223.03;5095962;27;45798;-69
2021/12/20 07:55:07;;;;;;;;;36.50;29.50;;;;;6.97;66.33;102237.22;5084503;27;45576;-69
2021/12/20 07:57:33;;;;;;;;;37.25;28.50;;;;;6.80;66.95;102239.13;5083134;27;45544;-69
2021/12/20 07:59:58;;;;;;;;;32.25;26.00;;;;;6.75;67.29;102235.44;5095529;27;45812;-67
2021/12/20 08:02:24;;;;;;;;;37.50;29.50;;;;;6.82;67.14;102241.81;5098403;27;45414;-69
2021/12/20 08:04:51;;;;;;;;;32.50;28.75;;;;;6.73;67.34;102217.16;5085973;27;45511;-68
2021/12/20 08:07:18;;;;;;;;;35.50;30.00;;;;;6.86;67.05;102230.66;5091812;27;45550;-68
2021/12/20 08:09:44;;;;;;;;;34.00;31.00;;;;;6.79;67.05;102232.16;5098701;27;45540;-70
2021/12/20 08:12:10;;;;;;;;;31.50;26.75;;;;;6.70;67.18;102219.63;5096782;27;45434;-71
2021/12/20 08:14:36;;;;;;;;;38.00;28.25;;;;;6.82;67.25;102240.09;5080176;27;46098;-71
2021/12/20 08:17:02;;;;;;;;;30.50;25.50;;;;;6.79;67.17;102235.63;5095333;27;45520;-70
2021/12/20 08:19:27;;;;;;;;;34.75;27.50;;;;;6.82;67.72;102236.59;5079643;27;45424;-71
2021/12/20 08:21:53;;;;;;;;;36.00;29.25;;;;;6.82;66.82;102241.81;5092192;27;45402;-70
2021/12/20 08:24:18;;;;;;;;;28.25;25.50;;;;;6.70;67.14;102232.66;5083340;27;46022;-71
2021/12/20 08:26:44;;;;;;;;;32.00;26.75;;;;;6.72;67.17;102248.34;5087065;27;45575;-69
2021/12/20 08:29:10;;;;;;;;;38.75;30.75;;;;;6.73;67.21;102261.41;5085951;27;45481;-70
2021/12/20 08:31:39;;;;;;;;;31.00;25.50;;;;;6.74;67.05;102255.41;5100962;27;45526;-71
2021/12/20 08:34:06;;;;;;;;;35.75;29.75;;;;;6.76;66.80;102258.03;5080088;27;45555;-70
2021/12/20 08:36:32;;;;;;;;;44.25;32.25;;;;;6.75;66.59;102267.56;5069474;27;45514;-70
2021/12/20 08:38:58;;;;;;;;;38.50;32.25;;;;;6.76;66.86;102268.47;5066256;27;45463;-71
2021/12/20 08:41:27;;;;;;;;;35.50;30.00;;;;;6.71;66.73;102273.47;5065547;27;45511;-68
2021/12/20 08:43:53;;;;;;;;;38.00;28.25;;;;;6.73;66.71;102266.63;5069714;27;45513;-68
2021/12/20 08:46:28;;;;;;;;;40.50;30.75;;;;;6.63;66.80;102248.84;5068943;27;45933;-69
2021/12/20 08:48:56;;;;;;;;;45.25;32.25;;;;;6.52;66.63;102237.06;5077135;27;45506;-70
2021/12/20 08:51:22;;;;;;;;;34.75;29.00;;;;;6.68;66.26;102275.06;5095639;27;45678;-70
2021/12/20 08:53:47;;;;;;;;;41.50;30.25;;;;;6.34;66.65;102225.06;5083570;27;46178;-72
2021/12/20 08:56:13;;;;;;;;;34.00;26.75;;;;;6.63;66.65;102287.00;5097230;27;45610;-71
2021/12/20 08:58:39;;;;;;;;;35.50;28.00;;;;;6.63;66.34;102282.69;5078328;27;45473;-71
2021/12/20 09:01:05;;;;;;;;;36.00;29.75;;;;;6.57;66.54;102285.94;5060677;27;45542;-69
2021/12/20 09:03:30;;;;;;;;;33.00;29.00;;;;;6.56;65.74;102278.94;5056666;27;45921;-69
2021/12/20 09:05:56;;;;;;;;;36.25;30.50;;;;;6.64;65.58;102284.44;5085865;27;45377;-69
2021/12/20 09:08:22;;;;;;;;;36.75;27.75;;;;;6.68;65.71;102288.97;5072415;27;45794;-72
2021/12/20 09:10:49;;;;;;;;;29.50;26.25;;;;;6.70;65.88;102289.94;5079508;27;45598;-71
2021/12/20 09:13:15;;;;;;;;;39.25;29.75;;;;;6.73;65.59;102300.47;5053393;28;46090;-70
2021/12/20 09:15:41;;;;;;;;;31.50;30.75;;;;;6.59;64.84;102267.75;5074311;27;46018;-70
2021/12/20 09:18:11;;;;;;;;;37.50;27.00;;;;;6.70;64.96;102281.25;5074892;27;45452;-71
2021/12/20 09:20:38;;;;;;;;;38.50;31.75;;;;;6.72;64.76;102287.41;5096449;27;45682;-71
2021/12/20 09:23:06;;;;;;;;;41.25;29.25;;;;;6.60;64.36;102277.34;5085402;27;46534;-70
2021/12/20 09:25:34;;;;;;;;;35.50;28.50;;;;;6.64;64.67;102294.88;5078019;27;45319;-69
2021/12/20 09:28:02;;;;;;;;;26.75;25.75;;;;;6.44;64.61;102272.31;5062040;27;45920;-71
2021/12/20 09:30:29;;;;;;;;;35.50;28.00;;;;;6.53;64.99;102289.22;5081702;27;45551;-72
2021/12/20 09:32:55;;;;;;;;;32.25;27.25;;;;;6.44;65.42;102269.72;5082589;27;45480;-69
2021/12/20 09:35:21;;;;;;;;;35.75;28.75;;;;;6.58;65.47;102294.63;5089304;27;45546;-69
2021/12/20 09:37:50;;;;;;;;;35.50;31.75;;;;;6.57;64.87;102287.63;5084947;27;45276;-69
2021/12/20 09:40:19;;;;;;;;;38.00;30.75;;;;;6.43;65.37;102265.31;5086873;27;45462;-70
2021/12/20 09:42:53;;;;;;;;;38.75;28.00;;;;;6.58;65.32;102298.09;5098169;27;46468;-70
2021/12/20 09:45:21;;;;;;;;;34.00;30.25;;;;;6.55;65.50;102290.19;5083858;27;45397;-68
2021/12/20 09:47:48;;;;;;;;;28.50;28.50;;;;;6.59;64.84;102302.47;5078245;27;45642;-69
2021/12/20 09:50:14;;;;;;;;;34.00;26.50;;;;;6.52;65.19;102282.22;5062939;27;45458;-69
2021/12/20 09:52:42;;;;;;;;;38.75;32.00;;;;;6.63;65.31;102289.63;5088280;27;46029;-69
2021/12/20 09:55:09;;;;;;;;;38.50;29.75;;;;;6.64;65.12;102294.88;5065199;27;45472;-69
2021/12/20 09:57:36;;;;;;;;;35.50;30.00;;;;;6.73;65.38;102297.88;5058591;27;45372;-69
2021/12/20 10:00:05;;;;;;;;;34.25;31.00;;;;;6.72;65.22;102282.19;5064554;27;45387;-69
2021/12/20 10:02:31;;;;;;;;;30.25;26.50;;;;;6.68;64.99;102294.19;5053870;28;46922;-68
2021/12/20 10:04:56;;;;;;;;;35.00;28.25;;;;;6.71;64.63;102291.69;5065711;27;45508;-70
2021/12/20 10:07:25;;;;;;;;;32.25;24.75;;;;;6.70;64.97;102308.16;5077504;27;45473;-69
2021/12/20 10:09:51;;;;;;;;;39.75;30.75;;;;;6.67;64.36;102292.41;5082955;27;45417;-68
2021/12/20 10:12:21;;;;;;;;;36.25;26.00;;;;;6.70;64.33;102289.06;5054435;28;45466;-69
2021/12/20 10:14:51;;;;;;;;;45.25;34.00;;;;;6.71;64.75;102299.50;5093407;27;45552;-69
2021/12/20 10:17:17;;;;;;;;;27.25;22.50;;;;;6.72;64.83;102303.91;5079662;27;45523;-68
2021/12/20 10:19:42;;;;;;;;;32.50;28.00;;;;;6.72;64.68;102300.44;5072542;27;45376;-69
2021/12/20 10:22:23;;;;;;;;;31.75;24.25;;;;;6.79;65.09;102300.75;5078991;28;45806;-68
2021/12/20 10:24:49;;;;;;;;;35.50;28.00;;;;;6.82;64.90;102296.50;5085264;27;45589;-68
2021/12/20 10:27:44;;;;;;;;;33.25;24.75;;;;;6.80;64.87;102293.81;5086509;27;45372;-68
2021/12/20 10:30:28;;;;;;;;;28.25;21.50;;;;;6.81;64.40;102300.81;5070495;27;45369;-69
2021/12/20 10:32:54;;;;;;;;;34.50;25.50;;;;;6.75;64.29;102295.34;5096367;27;45643;-70
2021/12/20 10:35:28;;;;;;;;;30.75;28.00;;;;;6.79;64.65;102303.34;5089854;27;45649;-70
2021/12/20 10:38:18;;;;;;;;;30.00;22.75;;;;;6.84;64.34;102300.06;5092118;27;45644;-68
2021/12/20 10:41:06;;;;;;;;;26.00;21.50;;;;;6.83;64.23;102285.25;5078115;27;45952;-68
2021/12/20 10:43:37;;;;;;;;;29.50;21.75;;;;;6.83;64.30;102290.44;5079078;27;45767;-68
2021/12/20 10:46:12;;;;;;;;;32.75;24.50;;;;;6.87;64.54;102280.22;5093053;27;45616;-69
2021/12/20 10:48:38;;;;;;;;;32.25;25.75;;;;;6.80;63.91;102281.69;5098824;27;45413;-69
2021/12/20 10:51:04;;;;;;;;;30.50;24.50;;;;;6.80;63.95;102286.00;5077692;27;45588;-69
2021/12/20 10:53:30;;;;;;;;;21.50;20.00;;;;;6.61;64.38;102271.31;5074042;28;45589;-68
2021/12/20 10:56:03;;;;;;;;;23.75;19.50;;;;;6.64;65.05;102283.56;5082901;27;45609;-67
2021/12/20 10:58:33;;;;;;;;;26.75;21.25;;;;;6.60;64.74;102272.16;5061640;27;45632;-68
2021/12/20 11:01:04;;;;;;;;;21.75;19.75;;;;;6.73;64.42;102287.44;5094293;27;45480;-69
2021/12/20 11:03:36;;;;;;;;;21.25;18.50;;;;;6.83;64.54;102274.81;5081761;27;45425;-69
2021/12/20 11:06:24;;;;;;;;;18.75;16.75;;;;;6.90;64.29;102282.06;5097187;27;45318;-68
2021/12/20 11:09:05;;;;;;;;;20.75;18.25;;;;;6.80;63.02;102263.44;5093968;27;45446;-68
2021/12/20 11:11:39;;;;;;;;;21.50;17.50;;;;;6.87;63.06;102274.13;5073862;28;45789;-68
2021/12/20 11:14:05;;;;;;;;;19.25;14.00;;;;;6.76;62.96;102260.66;5082710;27;45509;-69
2021/12/20 11:16:33;;;;;;;;;16.00;16.00;;;;;6.79;63.06;102266.91;5084974;27;45535;-68
2021/12/20 11:19:07;;;;;;;;;12.25;9.50;;;;;6.80;62.64;102259.97;5078385;27;45591;-68
2021/12/20 11:21:53;;;;;;;;;20.25;16.00;;;;;6.77;63.18;102268.53;5084552;27;45763;-69
2021/12/20 11:24:32;;;;;;;;;19.00;14.00;;;;;6.75;62.84;102253.69;5077950;27;45372;-69
2021/12/20 11:26:59;;;;;;;;;15.50;13.75;;;;;6.72;62.70;102248.34;5089672;27;45434;-69
2021/12/20 11:29:25;;;;;;;;;18.75;12.25;;;;;6.75;63.37;102251.06;5082049;27;45401;-69
2021/12/20 11:31:52;;;;;;;;;21.75;15.25;;;;;6.76;63.02;102253.75;5089194;27;45313;-68